sensor_id;sensor_type;location;lat;lon;timestamp;P1;durP1;ratioP1;P2;durP2;ratioP2
2866;SDS011;1441;48.886;8.728;2024-01-30T00:01:57;3.77;;;2.97;;
2866;SDS011;1441;48.886;8.728;2024-01-30T00:04:22;4.40;;;2.43;;
2866;SDS011;1441;48.886;8.728;2024-01-30T00:06:48;3.50;;;3.13;;
2866;SDS011;1441;48.886;8.728;2024-01-30T00:09:13;3.43;;;3.00;;
2866;SDS011;1441;48.886;8.728;2024-01-30T00:11:40;3.27;;;2.70;;
2866;SDS011;1441;48.886;8.728;2024-01-30T00:14:05;5.17;;;2.87;;
2866;SDS011;1441;48.886;8.728;2024-01-30T00:16:31;3.73;;;2.67;;
2866;SDS011;1441;48.886;8.728;2024-01-30T00:18:56;3.47;;;2.63;;
2866;SDS011;1441;48.886;8.728;2024-01-30T00:21:22;30.43;;;4.80;;
2866;SDS011;1441;48.886;8.728;2024-01-30T00:23:48;3.80;;;2.90;;
2866;SDS011;1441;48.886;8.728;2024-01-30T00:26:14;5.50;;;3.13;;
2866;SDS011;1441;48.886;8.728;2024-01-30T00:28:43;2.70;;;2.50;;
2866;SDS011;1441;48.886;8.728;2024-01-30T00:31:08;2.87;;;2.20;;
2866;SDS011;1441;48.886;8.728;2024-01-30T00:33:38;9.83;;;3.07;;
2866;SDS011;1441;48.886;8.728;2024-01-30T00:36:04;3.10;;;2.20;;
2866;SDS011;1441;48.886;8.728;2024-01-30T00:38:31;2.67;;;2.47;;
2866;SDS011;1441;48.886;8.728;2024-01-30T00:40:57;13.03;;;3.60;;
2866;SDS011;1441;48.886;8.728;2024-01-30T00:43:22;4.53;;;2.50;;
2866;SDS011;1441;48.886;8.728;2024-01-30T00:45:49;5.40;;;2.43;;
2866;SDS011;1441;48.886;8.728;2024-01-30T00:48:17;2.87;;;2.67;;
2866;SDS011;1441;48.886;8.728;2024-01-30T00:50:42;2.83;;;2.63;;
2866;SDS011;1441;48.886;8.728;2024-01-30T00:53:08;3.90;;;2.80;;
2866;SDS011;1441;48.886;8.728;2024-01-30T00:55:33;4.40;;;3.10;;
2866;SDS011;1441;48.886;8.728;2024-01-30T00:57:59;2.50;;;2.30;;
2866;SDS011;1441;48.886;8.728;2024-01-30T01:00:24;4.57;;;3.23;;
2866;SDS011;1441;48.886;8.728;2024-01-30T01:02:54;2.80;;;2.53;;
2866;SDS011;1441;48.886;8.728;2024-01-30T01:05:23;2.77;;;2.50;;
2866;SDS011;1441;48.886;8.728;2024-01-30T01:07:48;3.80;;;2.90;;
2866;SDS011;1441;48.886;8.728;2024-01-30T01:10:14;3.87;;;2.90;;
2866;SDS011;1441;48.886;8.728;2024-01-30T01:12:41;3.80;;;2.90;;
2866;SDS011;1441;48.886;8.728;2024-01-30T01:15:07;2.90;;;2.67;;
2866;SDS011;1441;48.886;8.728;2024-01-30T01:17:34;2.67;;;2.47;;
2866;SDS011;1441;48.886;8.728;2024-01-30T01:20:03;3.40;;;2.77;;
2866;SDS011;1441;48.886;8.728;2024-01-30T01:22:33;3.97;;;2.70;;
2866;SDS011;1441;48.886;8.728;2024-01-30T01:24:59;5.77;;;2.73;;
2866;SDS011;1441;48.886;8.728;2024-01-30T01:27:25;6.00;;;2.70;;
2866;SDS011;1441;48.886;8.728;2024-01-30T01:29:51;2.27;;;2.10;;
2866;SDS011;1441;48.886;8.728;2024-01-30T01:32:17;2.63;;;2.40;;
2866;SDS011;1441;48.886;8.728;2024-01-30T01:34:43;3.07;;;2.43;;
2866;SDS011;1441;48.886;8.728;2024-01-30T01:37:09;3.53;;;2.33;;
2866;SDS011;1441;48.886;8.728;2024-01-30T01:39:34;4.17;;;2.03;;
2866;SDS011;1441;48.886;8.728;2024-01-30T01:42:00;3.33;;;3.03;;
2866;SDS011;1441;48.886;8.728;2024-01-30T01:44:26;2.33;;;1.83;;
2866;SDS011;1441;48.886;8.728;2024-01-30T01:46:52;2.53;;;1.83;;
2866;SDS011;1441;48.886;8.728;2024-01-30T01:49:18;2.40;;;2.20;;
2866;SDS011;1441;48.886;8.728;2024-01-30T01:51:44;3.53;;;2.17;;
2866;SDS011;1441;48.886;8.728;2024-01-30T01:54:12;2.90;;;2.47;;
2866;SDS011;1441;48.886;8.728;2024-01-30T01:56:40;2.80;;;2.00;;
2866;SDS011;1441;48.886;8.728;2024-01-30T01:59:08;2.30;;;2.10;;
2866;SDS011;1441;48.886;8.728;2024-01-30T02:01:34;2.90;;;1.90;;
2866;SDS011;1441;48.886;8.728;2024-01-30T02:04:03;2.70;;;1.80;;
2866;SDS011;1441;48.886;8.728;2024-01-30T02:06:29;2.23;;;1.90;;
2866;SDS011;1441;48.886;8.728;2024-01-30T02:08:55;3.20;;;2.07;;
2866;SDS011;1441;48.886;8.728;2024-01-30T02:11:21;2.50;;;1.90;;
2866;SDS011;1441;48.886;8.728;2024-01-30T02:13:47;3.10;;;2.10;;
2866;SDS011;1441;48.886;8.728;2024-01-30T02:16:13;2.17;;;2.07;;
2866;SDS011;1441;48.886;8.728;2024-01-30T02:18:39;2.43;;;2.27;;
2866;SDS011;1441;48.886;8.728;2024-01-30T02:21:10;2.57;;;1.87;;
2866;SDS011;1441;48.886;8.728;2024-01-30T02:23:36;1.73;;;1.63;;
2866;SDS011;1441;48.886;8.728;2024-01-30T02:26:02;1.90;;;1.67;;
2866;SDS011;1441;48.886;8.728;2024-01-30T02:28:28;1.80;;;1.70;;
2866;SDS011;1441;48.886;8.728;2024-01-30T02:30:53;2.50;;;2.10;;
2866;SDS011;1441;48.886;8.728;2024-01-30T02:33:19;2.70;;;1.77;;
2866;SDS011;1441;48.886;8.728;2024-01-30T02:35:48;1.00;;;1.00;;
2866;SDS011;1441;48.886;8.728;2024-01-30T02:38:13;2.30;;;1.87;;
2866;SDS011;1441;48.886;8.728;2024-01-30T02:40:40;2.50;;;1.93;;
2866;SDS011;1441;48.886;8.728;2024-01-30T02:43:06;3.50;;;1.90;;
2866;SDS011;1441;48.886;8.728;2024-01-30T02:45:31;2.13;;;1.93;;
2866;SDS011;1441;48.886;8.728;2024-01-30T02:47:57;3.30;;;2.27;;
2866;SDS011;1441;48.886;8.728;2024-01-30T02:50:22;2.00;;;1.80;;
2866;SDS011;1441;48.886;8.728;2024-01-30T02:52:48;4.97;;;2.20;;
2866;SDS011;1441;48.886;8.728;2024-01-30T02:55:13;2.10;;;1.90;;
2866;SDS011;1441;48.886;8.728;2024-01-30T02:57:42;2.13;;;2.03;;
2866;SDS011;1441;48.886;8.728;2024-01-30T03:00:08;1.90;;;1.80;;
2866;SDS011;1441;48.886;8.728;2024-01-30T03:02:34;2.50;;;1.87;;
2866;SDS011;1441;48.886;8.728;2024-01-30T03:05:01;1.87;;;1.73;;
2866;SDS011;1441;48.886;8.728;2024-01-30T03:07:26;2.40;;;2.10;;
2866;SDS011;1441;48.886;8.728;2024-01-30T03:09:52;2.43;;;2.23;;
2866;SDS011;1441;48.886;8.728;2024-01-30T03:12:17;7.23;;;2.37;;
2866;SDS011;1441;48.886;8.728;2024-01-30T03:14:43;3.20;;;2.13;;
2866;SDS011;1441;48.886;8.728;2024-01-30T03:17:09;4.43;;;2.83;;
2866;SDS011;1441;48.886;8.728;2024-01-30T03:19:34;3.10;;;1.83;;
2866;SDS011;1441;48.886;8.728;2024-01-30T03:22:00;3.70;;;2.30;;
2866;SDS011;1441;48.886;8.728;2024-01-30T03:24:25;3.63;;;2.67;;
2866;SDS011;1441;48.886;8.728;2024-01-30T03:26:51;7.10;;;2.40;;
2866;SDS011;1441;48.886;8.728;2024-01-30T03:29:17;3.30;;;2.70;;
2866;SDS011;1441;48.886;8.728;2024-01-30T03:31:42;5.33;;;2.20;;
2866;SDS011;1441;48.886;8.728;2024-01-30T03:34:08;2.63;;;2.43;;
2866;SDS011;1441;48.886;8.728;2024-01-30T03:36:33;5.30;;;2.33;;
2866;SDS011;1441;48.886;8.728;2024-01-30T03:38:59;2.03;;;1.80;;
2866;SDS011;1441;48.886;8.728;2024-01-30T03:41:25;3.07;;;2.20;;
2866;SDS011;1441;48.886;8.728;2024-01-30T03:43:51;2.17;;;2.03;;
2866;SDS011;1441;48.886;8.728;2024-01-30T03:46:16;2.33;;;2.03;;
2866;SDS011;1441;48.886;8.728;2024-01-30T03:48:42;2.13;;;1.97;;
2866;SDS011;1441;48.886;8.728;2024-01-30T03:51:07;3.30;;;1.80;;
2866;SDS011;1441;48.886;8.728;2024-01-30T03:53:33;2.00;;;1.80;;
2866;SDS011;1441;48.886;8.728;2024-01-30T03:56:00;2.10;;;1.90;;
2866;SDS011;1441;48.886;8.728;2024-01-30T03:58:25;2.57;;;1.97;;
2866;SDS011;1441;48.886;8.728;2024-01-30T04:00:51;3.87;;;1.80;;
2866;SDS011;1441;48.886;8.728;2024-01-30T04:03:17;1.60;;;1.50;;
2866;SDS011;1441;48.886;8.728;2024-01-30T04:05:42;2.10;;;1.47;;
2866;SDS011;1441;48.886;8.728;2024-01-30T04:08:08;3.30;;;1.70;;
2866;SDS011;1441;48.886;8.728;2024-01-30T04:10:34;1.83;;;1.60;;
2866;SDS011;1441;48.886;8.728;2024-01-30T04:12:59;1.83;;;1.40;;
2866;SDS011;1441;48.886;8.728;2024-01-30T04:15:25;1.77;;;1.67;;
2866;SDS011;1441;48.886;8.728;2024-01-30T04:17:51;1.80;;;1.70;;
2866;SDS011;1441;48.886;8.728;2024-01-30T04:20:16;4.23;;;2.10;;
2866;SDS011;1441;48.886;8.728;2024-01-30T04:22:45;1.80;;;1.70;;
2866;SDS011;1441;48.886;8.728;2024-01-30T04:25:12;1.60;;;1.50;;
2866;SDS011;1441;48.886;8.728;2024-01-30T04:27:38;1.90;;;1.80;;
2866;SDS011;1441;48.886;8.728;2024-01-30T04:30:04;1.57;;;1.47;;
2866;SDS011;1441;48.886;8.728;2024-01-30T04:32:30;2.23;;;1.90;;
2866;SDS011;1441;48.886;8.728;2024-01-30T04:34:56;1.90;;;1.70;;
2866;SDS011;1441;48.886;8.728;2024-01-30T04:37:22;2.23;;;1.80;;
2866;SDS011;1441;48.886;8.728;2024-01-30T04:39:48;2.10;;;1.67;;
2866;SDS011;1441;48.886;8.728;2024-01-30T04:42:14;1.60;;;1.50;;
2866;SDS011;1441;48.886;8.728;2024-01-30T04:44:39;2.60;;;2.00;;
2866;SDS011;1441;48.886;8.728;2024-01-30T04:47:05;1.63;;;1.53;;
2866;SDS011;1441;48.886;8.728;2024-01-30T04:49:33;1.60;;;1.50;;
2866;SDS011;1441;48.886;8.728;2024-01-30T04:51:58;1.83;;;1.70;;
2866;SDS011;1441;48.886;8.728;2024-01-30T04:54:24;1.93;;;1.83;;
2866;SDS011;1441;48.886;8.728;2024-01-30T04:56:49;3.30;;;2.23;;
2866;SDS011;1441;48.886;8.728;2024-01-30T04:59:15;2.50;;;2.10;;
2866;SDS011;1441;48.886;8.728;2024-01-30T05:01:40;1.83;;;1.73;;
2866;SDS011;1441;48.886;8.728;2024-01-30T05:04:09;2.47;;;2.20;;
2866;SDS011;1441;48.886;8.728;2024-01-30T05:06:35;2.67;;;2.20;;
2866;SDS011;1441;48.886;8.728;2024-01-30T05:09:00;3.13;;;2.03;;
2866;SDS011;1441;48.886;8.728;2024-01-30T05:11:26;2.30;;;2.00;;
2866;SDS011;1441;48.886;8.728;2024-01-30T05:13:52;2.70;;;2.03;;
2866;SDS011;1441;48.886;8.728;2024-01-30T05:16:17;2.50;;;2.10;;
2866;SDS011;1441;48.886;8.728;2024-01-30T05:18:43;2.57;;;2.40;;
2866;SDS011;1441;48.886;8.728;2024-01-30T05:21:10;3.03;;;2.47;;
2866;SDS011;1441;48.886;8.728;2024-01-30T05:23:35;2.43;;;2.23;;
2866;SDS011;1441;48.886;8.728;2024-01-30T05:26:01;2.73;;;1.70;;
2866;SDS011;1441;48.886;8.728;2024-01-30T05:28:27;3.30;;;2.00;;
2866;SDS011;1441;48.886;8.728;2024-01-30T05:30:56;4.07;;;2.20;;
2866;SDS011;1441;48.886;8.728;2024-01-30T05:33:21;2.20;;;1.90;;
2866;SDS011;1441;48.886;8.728;2024-01-30T05:35:47;4.53;;;2.60;;
2866;SDS011;1441;48.886;8.728;2024-01-30T05:38:13;2.03;;;1.90;;
2866;SDS011;1441;48.886;8.728;2024-01-30T05:40:40;2.80;;;2.40;;
2866;SDS011;1441;48.886;8.728;2024-01-30T05:43:06;5.40;;;2.27;;
2866;SDS011;1441;48.886;8.728;2024-01-30T05:45:32;2.60;;;2.40;;
2866;SDS011;1441;48.886;8.728;2024-01-30T05:47:59;4.43;;;2.30;;
2866;SDS011;1441;48.886;8.728;2024-01-30T05:50:24;2.60;;;2.13;;
2866;SDS011;1441;48.886;8.728;2024-01-30T05:52:51;3.40;;;2.80;;
2866;SDS011;1441;48.886;8.728;2024-01-30T05:55:16;4.27;;;3.37;;
2866;SDS011;1441;48.886;8.728;2024-01-30T05:57:45;2.70;;;2.37;;
2866;SDS011;1441;48.886;8.728;2024-01-30T06:00:10;3.10;;;1.93;;
2866;SDS011;1441;48.886;8.728;2024-01-30T06:02:36;3.80;;;2.73;;
2866;SDS011;1441;48.886;8.728;2024-01-30T06:05:01;4.97;;;2.23;;
2866;SDS011;1441;48.886;8.728;2024-01-30T06:07:27;4.13;;;2.70;;
2866;SDS011;1441;48.886;8.728;2024-01-30T06:09:53;3.03;;;2.00;;
2866;SDS011;1441;48.886;8.728;2024-01-30T06:12:18;3.60;;;2.17;;
2866;SDS011;1441;48.886;8.728;2024-01-30T06:14:44;2.77;;;2.20;;
2866;SDS011;1441;48.886;8.728;2024-01-30T06:17:09;4.70;;;2.30;;
2866;SDS011;1441;48.886;8.728;2024-01-30T06:19:36;4.73;;;2.33;;
2866;SDS011;1441;48.886;8.728;2024-01-30T06:22:03;4.00;;;1.70;;
2866;SDS011;1441;48.886;8.728;2024-01-30T06:24:29;2.97;;;2.37;;
2866;SDS011;1441;48.886;8.728;2024-01-30T06:26:54;4.67;;;3.20;;
2866;SDS011;1441;48.886;8.728;2024-01-30T06:29:20;4.10;;;3.13;;
2866;SDS011;1441;48.886;8.728;2024-01-30T06:31:46;4.67;;;2.97;;
2866;SDS011;1441;48.886;8.728;2024-01-30T06:34:11;4.23;;;2.00;;
2866;SDS011;1441;48.886;8.728;2024-01-30T06:36:37;3.47;;;2.30;;
2866;SDS011;1441;48.886;8.728;2024-01-30T06:39:03;2.20;;;2.00;;
2866;SDS011;1441;48.886;8.728;2024-01-30T06:41:29;5.03;;;2.80;;
2866;SDS011;1441;48.886;8.728;2024-01-30T06:43:55;4.93;;;2.80;;
2866;SDS011;1441;48.886;8.728;2024-01-30T06:46:21;3.70;;;2.30;;
2866;SDS011;1441;48.886;8.728;2024-01-30T06:48:47;3.13;;;2.47;;
2866;SDS011;1441;48.886;8.728;2024-01-30T06:51:13;2.80;;;2.13;;
2866;SDS011;1441;48.886;8.728;2024-01-30T06:53:39;5.43;;;2.60;;
2866;SDS011;1441;48.886;8.728;2024-01-30T06:56:05;5.20;;;2.63;;
2866;SDS011;1441;48.886;8.728;2024-01-30T06:58:30;4.43;;;2.70;;
2866;SDS011;1441;48.886;8.728;2024-01-30T07:00:57;4.60;;;2.87;;
2866;SDS011;1441;48.886;8.728;2024-01-30T07:03:23;3.43;;;2.33;;
2866;SDS011;1441;48.886;8.728;2024-01-30T07:05:48;3.03;;;2.40;;
2866;SDS011;1441;48.886;8.728;2024-01-30T07:08:14;4.63;;;2.60;;
2866;SDS011;1441;48.886;8.728;2024-01-30T07:10:42;4.27;;;2.90;;
2866;SDS011;1441;48.886;8.728;2024-01-30T07:13:11;4.13;;;2.40;;
2866;SDS011;1441;48.886;8.728;2024-01-30T07:15:36;4.57;;;2.77;;
2866;SDS011;1441;48.886;8.728;2024-01-30T07:18:02;5.30;;;3.03;;
2866;SDS011;1441;48.886;8.728;2024-01-30T07:20:29;4.50;;;3.40;;
2866;SDS011;1441;48.886;8.728;2024-01-30T07:22:56;6.67;;;3.40;;
2866;SDS011;1441;48.886;8.728;2024-01-30T07:25:25;3.73;;;3.17;;
2866;SDS011;1441;48.886;8.728;2024-01-30T07:27:52;6.53;;;3.40;;
2866;SDS011;1441;48.886;8.728;2024-01-30T07:30:18;5.57;;;3.80;;
2866;SDS011;1441;48.886;8.728;2024-01-30T07:32:44;4.37;;;3.97;;
2866;SDS011;1441;48.886;8.728;2024-01-30T07:35:09;6.63;;;4.27;;
2866;SDS011;1441;48.886;8.728;2024-01-30T07:37:36;13.50;;;4.43;;
2866;SDS011;1441;48.886;8.728;2024-01-30T07:40:02;3.13;;;2.93;;
2866;SDS011;1441;48.886;8.728;2024-01-30T07:42:28;4.57;;;3.50;;
2866;SDS011;1441;48.886;8.728;2024-01-30T07:44:53;5.90;;;3.23;;
2866;SDS011;1441;48.886;8.728;2024-01-30T07:47:19;4.27;;;3.30;;
2866;SDS011;1441;48.886;8.728;2024-01-30T07:49:44;10.53;;;3.70;;
2866;SDS011;1441;48.886;8.728;2024-01-30T07:52:10;9.57;;;4.17;;
2866;SDS011;1441;48.886;8.728;2024-01-30T07:54:39;4.87;;;3.93;;
2866;SDS011;1441;48.886;8.728;2024-01-30T07:57:14;4.30;;;3.33;;
2866;SDS011;1441;48.886;8.728;2024-01-30T07:59:41;4.33;;;3.93;;
2866;SDS011;1441;48.886;8.728;2024-01-30T08:02:08;6.33;;;4.20;;
2866;SDS011;1441;48.886;8.728;2024-01-30T08:04:34;9.90;;;4.40;;
2866;SDS011;1441;48.886;8.728;2024-01-30T08:07:00;4.13;;;3.73;;
2866;SDS011;1441;48.886;8.728;2024-01-30T08:09:25;7.07;;;4.20;;
2866;SDS011;1441;48.886;8.728;2024-01-30T08:11:51;5.27;;;4.33;;
2866;SDS011;1441;48.886;8.728;2024-01-30T08:14:17;6.00;;;3.70;;
2866;SDS011;1441;48.886;8.728;2024-01-30T08:16:43;5.57;;;3.93;;
2866;SDS011;1441;48.886;8.728;2024-01-30T08:19:09;4.47;;;4.07;;
2866;SDS011;1441;48.886;8.728;2024-01-30T08:21:34;5.60;;;4.40;;
2866;SDS011;1441;48.886;8.728;2024-01-30T08:24:02;4.53;;;3.90;;
2866;SDS011;1441;48.886;8.728;2024-01-30T08:26:29;5.73;;;4.67;;
2866;SDS011;1441;48.886;8.728;2024-01-30T08:28:55;6.53;;;4.27;;
2866;SDS011;1441;48.886;8.728;2024-01-30T08:31:20;5.80;;;4.00;;
2866;SDS011;1441;48.886;8.728;2024-01-30T08:33:46;4.97;;;4.17;;
2866;SDS011;1441;48.886;8.728;2024-01-30T08:36:11;7.60;;;5.47;;
2866;SDS011;1441;48.886;8.728;2024-01-30T08:38:37;6.90;;;5.53;;
2866;SDS011;1441;48.886;8.728;2024-01-30T08:41:02;8.97;;;4.80;;
2866;SDS011;1441;48.886;8.728;2024-01-30T08:43:28;5.10;;;4.17;;
2866;SDS011;1441;48.886;8.728;2024-01-30T08:45:54;6.93;;;4.57;;
2866;SDS011;1441;48.886;8.728;2024-01-30T08:48:19;8.70;;;3.87;;
2866;SDS011;1441;48.886;8.728;2024-01-30T08:50:46;4.70;;;4.00;;
2866;SDS011;1441;48.886;8.728;2024-01-30T08:53:11;5.27;;;4.70;;
2866;SDS011;1441;48.886;8.728;2024-01-30T08:55:37;6.60;;;4.70;;
2866;SDS011;1441;48.886;8.728;2024-01-30T08:58:04;3.80;;;3.50;;
2866;SDS011;1441;48.886;8.728;2024-01-30T09:00:30;8.30;;;4.60;;
2866;SDS011;1441;48.886;8.728;2024-01-30T09:02:55;8.27;;;4.70;;
2866;SDS011;1441;48.886;8.728;2024-01-30T09:05:21;10.10;;;4.67;;
2866;SDS011;1441;48.886;8.728;2024-01-30T09:07:46;6.47;;;3.50;;
2866;SDS011;1441;48.886;8.728;2024-01-30T09:10:12;6.03;;;3.60;;
2866;SDS011;1441;48.886;8.728;2024-01-30T09:12:37;8.20;;;4.07;;
2866;SDS011;1441;48.886;8.728;2024-01-30T09:15:03;5.70;;;3.83;;
2866;SDS011;1441;48.886;8.728;2024-01-30T09:17:29;4.03;;;3.47;;
2866;SDS011;1441;48.886;8.728;2024-01-30T09:19:55;5.30;;;3.80;;
2866;SDS011;1441;48.886;8.728;2024-01-30T09:22:20;4.70;;;3.43;;
2866;SDS011;1441;48.886;8.728;2024-01-30T09:24:46;4.93;;;3.77;;
2866;SDS011;1441;48.886;8.728;2024-01-30T09:27:11;7.07;;;3.63;;
2866;SDS011;1441;48.886;8.728;2024-01-30T09:29:37;6.60;;;4.37;;
2866;SDS011;1441;48.886;8.728;2024-01-30T09:32:03;4.97;;;3.90;;
2866;SDS011;1441;48.886;8.728;2024-01-30T09:34:29;6.17;;;4.50;;
2866;SDS011;1441;48.886;8.728;2024-01-30T09:36:55;7.83;;;4.07;;
2866;SDS011;1441;48.886;8.728;2024-01-30T09:39:20;5.57;;;4.10;;
2866;SDS011;1441;48.886;8.728;2024-01-30T09:41:55;4.93;;;4.20;;
2866;SDS011;1441;48.886;8.728;2024-01-30T09:44:42;5.37;;;3.90;;
2866;SDS011;1441;48.886;8.728;2024-01-30T09:47:08;6.47;;;3.53;;
2866;SDS011;1441;48.886;8.728;2024-01-30T09:49:36;4.37;;;3.77;;
2866;SDS011;1441;48.886;8.728;2024-01-30T09:52:03;12.57;;;4.10;;
2866;SDS011;1441;48.886;8.728;2024-01-30T09:54:30;4.93;;;4.00;;
2866;SDS011;1441;48.886;8.728;2024-01-30T09:56:56;4.73;;;4.20;;
2866;SDS011;1441;48.886;8.728;2024-01-30T09:59:22;4.93;;;4.40;;
2866;SDS011;1441;48.886;8.728;2024-01-30T10:01:48;7.20;;;4.50;;
2866;SDS011;1441;48.886;8.728;2024-01-30T10:04:18;8.60;;;4.37;;
2866;SDS011;1441;48.886;8.728;2024-01-30T10:06:43;5.40;;;3.90;;
2866;SDS011;1441;48.886;8.728;2024-01-30T10:09:09;5.27;;;4.50;;
2866;SDS011;1441;48.886;8.728;2024-01-30T10:11:35;4.40;;;3.40;;
2866;SDS011;1441;48.886;8.728;2024-01-30T10:14:01;7.23;;;4.83;;
2866;SDS011;1441;48.886;8.728;2024-01-30T10:16:27;4.10;;;3.60;;
2866;SDS011;1441;48.886;8.728;2024-01-30T10:18:52;5.83;;;4.50;;
2866;SDS011;1441;48.886;8.728;2024-01-30T10:21:18;4.27;;;3.87;;
2866;SDS011;1441;48.886;8.728;2024-01-30T10:23:44;5.10;;;4.43;;
2866;SDS011;1441;48.886;8.728;2024-01-30T10:26:09;8.13;;;4.07;;
2866;SDS011;1441;48.886;8.728;2024-01-30T10:28:35;5.23;;;3.83;;
2866;SDS011;1441;48.886;8.728;2024-01-30T10:31:01;4.73;;;3.57;;
2866;SDS011;1441;48.886;8.728;2024-01-30T10:33:28;6.80;;;5.10;;
2866;SDS011;1441;48.886;8.728;2024-01-30T10:36:04;8.30;;;5.40;;
2866;SDS011;1441;48.886;8.728;2024-01-30T10:38:31;5.37;;;4.67;;
2866;SDS011;1441;48.886;8.728;2024-01-30T10:40:57;8.33;;;5.80;;
2866;SDS011;1441;48.886;8.728;2024-01-30T10:43:31;6.63;;;5.23;;
2866;SDS011;1441;48.886;8.728;2024-01-30T10:46:18;7.77;;;5.07;;
2866;SDS011;1441;48.886;8.728;2024-01-30T10:48:48;9.43;;;5.40;;
2866;SDS011;1441;48.886;8.728;2024-01-30T10:51:22;6.83;;;4.70;;
2866;SDS011;1441;48.886;8.728;2024-01-30T10:53:50;7.40;;;5.40;;
2866;SDS011;1441;48.886;8.728;2024-01-30T10:56:16;9.90;;;5.03;;
2866;SDS011;1441;48.886;8.728;2024-01-30T10:58:43;8.30;;;5.73;;
2866;SDS011;1441;48.886;8.728;2024-01-30T11:01:11;11.40;;;8.57;;
2866;SDS011;1441;48.886;8.728;2024-01-30T11:03:37;15.83;;;8.37;;
2866;SDS011;1441;48.886;8.728;2024-01-30T11:06:03;10.23;;;8.03;;
2866;SDS011;1441;48.886;8.728;2024-01-30T11:08:31;16.27;;;9.13;;
2866;SDS011;1441;48.886;8.728;2024-01-30T11:10:57;15.10;;;9.10;;
2866;SDS011;1441;48.886;8.728;2024-01-30T11:13:30;15.07;;;9.60;;
2866;SDS011;1441;48.886;8.728;2024-01-30T11:16:00;16.00;;;8.40;;
2866;SDS011;1441;48.886;8.728;2024-01-30T11:18:28;18.50;;;9.00;;
2866;SDS011;1441;48.886;8.728;2024-01-30T11:20:58;23.13;;;9.93;;
2866;SDS011;1441;48.886;8.728;2024-01-30T11:23:26;18.03;;;9.97;;
2866;SDS011;1441;48.886;8.728;2024-01-30T11:25:53;17.80;;;9.97;;
2866;SDS011;1441;48.886;8.728;2024-01-30T11:28:20;17.00;;;8.50;;
2866;SDS011;1441;48.886;8.728;2024-01-30T11:30:47;13.10;;;8.37;;
2866;SDS011;1441;48.886;8.728;2024-01-30T11:33:15;15.47;;;8.30;;
2866;SDS011;1441;48.886;8.728;2024-01-30T11:35:56;13.60;;;8.10;;
2866;SDS011;1441;48.886;8.728;2024-01-30T11:38:23;17.97;;;7.27;;
2866;SDS011;1441;48.886;8.728;2024-01-30T11:40:51;17.23;;;6.80;;
2866;SDS011;1441;48.886;8.728;2024-01-30T11:43:17;11.60;;;6.63;;
2866;SDS011;1441;48.886;8.728;2024-01-30T11:45:43;8.33;;;5.70;;
2866;SDS011;1441;48.886;8.728;2024-01-30T11:48:10;7.47;;;5.67;;
2866;SDS011;1441;48.886;8.728;2024-01-30T11:50:37;8.10;;;5.50;;
2866;SDS011;1441;48.886;8.728;2024-01-30T11:53:04;8.07;;;6.03;;
2866;SDS011;1441;48.886;8.728;2024-01-30T11:55:30;8.10;;;5.70;;
2866;SDS011;1441;48.886;8.728;2024-01-30T11:57:59;6.70;;;5.07;;
2866;SDS011;1441;48.886;8.728;2024-01-30T12:00:25;10.23;;;6.50;;
2866;SDS011;1441;48.886;8.728;2024-01-30T12:02:51;12.93;;;7.40;;
2866;SDS011;1441;48.886;8.728;2024-01-30T12:05:21;11.80;;;6.97;;
2866;SDS011;1441;48.886;8.728;2024-01-30T12:07:47;15.07;;;7.50;;
2866;SDS011;1441;48.886;8.728;2024-01-30T12:10:13;10.63;;;7.50;;
2866;SDS011;1441;48.886;8.728;2024-01-30T12:12:39;8.67;;;6.50;;
2866;SDS011;1441;48.886;8.728;2024-01-30T12:15:06;10.57;;;6.43;;
2866;SDS011;1441;48.886;8.728;2024-01-30T12:17:33;10.33;;;6.70;;
2866;SDS011;1441;48.886;8.728;2024-01-30T12:22:36;13.10;;;7.70;;
2866;SDS011;1441;48.886;8.728;2024-01-30T12:25:08;12.93;;;6.60;;
2866;SDS011;1441;48.886;8.728;2024-01-30T12:27:34;9.47;;;6.23;;
2866;SDS011;1441;48.886;8.728;2024-01-30T12:30:00;8.50;;;6.67;;
2866;SDS011;1441;48.886;8.728;2024-01-30T12:32:26;9.57;;;6.57;;
2866;SDS011;1441;48.886;8.728;2024-01-30T12:34:54;13.63;;;7.83;;
2866;SDS011;1441;48.886;8.728;2024-01-30T12:37:21;13.70;;;7.57;;
2866;SDS011;1441;48.886;8.728;2024-01-30T12:39:49;11.33;;;7.50;;
2866;SDS011;1441;48.886;8.728;2024-01-30T12:42:16;14.20;;;7.20;;
2866;SDS011;1441;48.886;8.728;2024-01-30T12:44:42;11.40;;;7.10;;
2866;SDS011;1441;48.886;8.728;2024-01-30T12:47:11;8.73;;;4.20;;
2866;SDS011;1441;48.886;8.728;2024-01-30T12:49:36;6.53;;;3.97;;
2866;SDS011;1441;48.886;8.728;2024-01-30T12:52:02;4.97;;;3.80;;
2866;SDS011;1441;48.886;8.728;2024-01-30T12:54:27;4.40;;;2.70;;
2866;SDS011;1441;48.886;8.728;2024-01-30T12:56:53;5.33;;;2.67;;
2866;SDS011;1441;48.886;8.728;2024-01-30T12:59:19;3.50;;;2.60;;
2866;SDS011;1441;48.886;8.728;2024-01-30T13:01:44;1.97;;;1.87;;
2866;SDS011;1441;48.886;8.728;2024-01-30T13:04:10;2.70;;;2.03;;
2866;SDS011;1441;48.886;8.728;2024-01-30T13:06:35;2.30;;;2.00;;
2866;SDS011;1441;48.886;8.728;2024-01-30T13:09:01;2.50;;;1.97;;
2866;SDS011;1441;48.886;8.728;2024-01-30T13:11:27;4.93;;;2.40;;
2866;SDS011;1441;48.886;8.728;2024-01-30T13:13:53;2.73;;;2.40;;
2866;SDS011;1441;48.886;8.728;2024-01-30T13:16:18;3.13;;;2.47;;
2866;SDS011;1441;48.886;8.728;2024-01-30T13:18:44;5.50;;;2.40;;
2866;SDS011;1441;48.886;8.728;2024-01-30T13:21:09;5.20;;;3.37;;
2866;SDS011;1441;48.886;8.728;2024-01-30T13:23:35;8.60;;;4.20;;
2866;SDS011;1441;48.886;8.728;2024-01-30T13:26:00;6.97;;;4.10;;
2866;SDS011;1441;48.886;8.728;2024-01-30T13:28:27;7.90;;;4.50;;
2866;SDS011;1441;48.886;8.728;2024-01-30T13:30:52;4.47;;;3.80;;
2866;SDS011;1441;48.886;8.728;2024-01-30T13:33:18;3.50;;;2.80;;
2866;SDS011;1441;48.886;8.728;2024-01-30T13:35:44;5.87;;;2.30;;
2866;SDS011;1441;48.886;8.728;2024-01-30T13:38:09;2.40;;;2.20;;
2866;SDS011;1441;48.886;8.728;2024-01-30T13:40:35;3.33;;;2.40;;
2866;SDS011;1441;48.886;8.728;2024-01-30T13:43:01;5.40;;;2.70;;
2866;SDS011;1441;48.886;8.728;2024-01-30T13:45:26;3.87;;;2.80;;
2866;SDS011;1441;48.886;8.728;2024-01-30T13:47:52;5.50;;;2.80;;
2866;SDS011;1441;48.886;8.728;2024-01-30T13:50:18;3.97;;;2.17;;
2866;SDS011;1441;48.886;8.728;2024-01-30T13:52:43;3.27;;;2.83;;
2866;SDS011;1441;48.886;8.728;2024-01-30T13:55:09;3.90;;;2.50;;
2866;SDS011;1441;48.886;8.728;2024-01-30T13:57:35;3.47;;;3.00;;
2866;SDS011;1441;48.886;8.728;2024-01-30T14:00:04;3.33;;;3.00;;
2866;SDS011;1441;48.886;8.728;2024-01-30T14:02:31;4.10;;;3.60;;
2866;SDS011;1441;48.886;8.728;2024-01-30T14:04:57;3.00;;;2.67;;
2866;SDS011;1441;48.886;8.728;2024-01-30T14:07:23;5.17;;;3.17;;
2866;SDS011;1441;48.886;8.728;2024-01-30T14:09:48;10.23;;;5.20;;
2866;SDS011;1441;48.886;8.728;2024-01-30T14:12:14;10.63;;;5.20;;
2866;SDS011;1441;48.886;8.728;2024-01-30T14:14:40;14.17;;;4.23;;
2866;SDS011;1441;48.886;8.728;2024-01-30T14:17:06;7.93;;;4.70;;
2866;SDS011;1441;48.886;8.728;2024-01-30T14:19:32;9.33;;;4.90;;
2866;SDS011;1441;48.886;8.728;2024-01-30T14:21:59;7.80;;;4.23;;
2866;SDS011;1441;48.886;8.728;2024-01-30T14:24:24;7.33;;;3.37;;
2866;SDS011;1441;48.886;8.728;2024-01-30T14:26:50;2.97;;;2.70;;
2866;SDS011;1441;48.886;8.728;2024-01-30T14:29:15;5.00;;;3.63;;
2866;SDS011;1441;48.886;8.728;2024-01-30T14:31:41;4.40;;;3.50;;
2866;SDS011;1441;48.886;8.728;2024-01-30T14:34:07;8.43;;;3.83;;
2866;SDS011;1441;48.886;8.728;2024-01-30T14:36:33;3.77;;;3.03;;
2866;SDS011;1441;48.886;8.728;2024-01-30T14:38:59;5.57;;;3.03;;
2866;SDS011;1441;48.886;8.728;2024-01-30T14:41:24;4.40;;;3.57;;
2866;SDS011;1441;48.886;8.728;2024-01-30T14:43:50;8.50;;;3.80;;
2866;SDS011;1441;48.886;8.728;2024-01-30T14:46:15;4.57;;;3.70;;
2866;SDS011;1441;48.886;8.728;2024-01-30T14:48:41;4.27;;;3.60;;
2866;SDS011;1441;48.886;8.728;2024-01-30T14:51:08;3.93;;;3.43;;
2866;SDS011;1441;48.886;8.728;2024-01-30T14:53:33;5.30;;;3.43;;
2866;SDS011;1441;48.886;8.728;2024-01-30T14:55:59;6.13;;;3.30;;
2866;SDS011;1441;48.886;8.728;2024-01-30T14:58:25;9.40;;;4.10;;
2866;SDS011;1441;48.886;8.728;2024-01-30T15:00:50;5.53;;;3.27;;
2866;SDS011;1441;48.886;8.728;2024-01-30T15:03:16;4.83;;;4.00;;
2866;SDS011;1441;48.886;8.728;2024-01-30T15:05:41;5.40;;;4.10;;
2866;SDS011;1441;48.886;8.728;2024-01-30T15:08:07;3.63;;;2.97;;
2866;SDS011;1441;48.886;8.728;2024-01-30T15:10:32;6.13;;;4.43;;
2866;SDS011;1441;48.886;8.728;2024-01-30T15:12:58;5.93;;;4.40;;